Flight Track Log - Related Links

Times and Time Zones

All times are in EDT time to prevent confusion due to time zone crossing. See the JAL894 flight status page for this flight to view local times or setup timezone preferences in your user account.

Time Position Orientation Groundspeed Altitude Reporting Facility
EDT Latitude Longitude Course Direction KTS MPH feet Rate Location/Type
Sun 01:37:32 AM 31.1644 121.8628 70° East  Level Estimated
Sun 01:38:32 AM 31.2049 121.9949 70° East  Level Estimated
Sun 01:39:32 AM 31.2453 122.1272 70° East  Level Estimated
Sun 01:40:32 AM 31.2855 122.2596 70° East  Level Estimated
Sun 01:41:32 AM 31.3256 122.3921 71° East  Level Estimated
Sun 01:42:32 AM 31.3656 122.5247 71° East  Level Estimated
Sun 01:43:32 AM 31.4054 122.6574 71° East  Level Estimated
Sun 01:44:32 AM 31.4451 122.7902 71° East  Level Estimated
Sun 01:45:32 AM 31.4846 122.9231 71° East  Level Estimated
Sun 01:46:32 AM 31.5240 123.0562 71° East  Level Estimated
Sun 01:47:32 AM 31.5633 123.1893 71° East  Level Estimated
Sun 01:48:32 AM 31.6024 123.3226 71° East  Level Estimated
Sun 01:49:32 AM 31.6414 123.4560 71° East  Level Estimated
Sun 01:50:32 AM 31.6802 123.5895 71° East  Level Estimated
Sun 01:51:32 AM 31.7190 123.7231 71° East  Level Estimated
Sun 01:52:32 AM 31.7575 123.8568 71° East  Level Estimated
Sun 01:53:32 AM 31.7959 123.9907 71° East  Level Estimated
Sun 01:54:32 AM 31.8342 124.1246 71° East  Level Estimated
Sun 01:55:32 AM 31.8724 124.2587 72° East  Level Estimated
Sun 01:56:32 AM 31.9104 124.3928 72° East  Level Estimated
Sun 01:57:32 AM 31.9483 124.5271 72° East  Level Estimated
Sun 01:58:32 AM 31.9860 124.6615 72° East  Level Estimated
Sun 01:59:32 AM 32.0236 124.7960 72° East  Level Estimated
Sun 02:00:32 AM 32.0610 124.9306 72° East  Level Estimated
Sun 02:01:32 AM 32.0983 125.0653 72° East  Level Estimated
Sun 02:02:32 AM 32.1355 125.2001 72° East  Level Estimated
Sun 02:03:32 AM 32.1725 125.3351 72° East  Level Estimated
Sun 02:04:32 AM 32.2094 125.4701 72° East  Level Estimated
Sun 02:05:32 AM 32.2461 125.6053 72° East  Level Estimated
Sun 02:06:32 AM 32.2827 125.7406 72° East  Level Estimated
Sun 02:07:32 AM 32.3191 125.8759 72° East  Level Estimated
Sun 02:08:32 AM 32.3554 126.0114 72° East  Level Estimated
Sun 02:09:32 AM 32.3916 126.1470 73° East  Level Estimated
Sun 02:10:32 AM 32.4276 126.2827 73° East  Level Estimated
Sun 02:11:32 AM 32.4635 126.4185 73° East  Level Estimated
Sun 02:12:32 AM 32.4992 126.5544 73° East  Level Estimated
Sun 02:13:32 AM 32.5348 126.6905 73° East  Level Estimated
Sun 02:14:32 AM 32.5702 126.8266 73° East  Level Estimated
Sun 02:15:32 AM 32.6041 126.9575 73° East  Level Estimated
Sun 02:16:32 AM 32.6378 127.0885 73° East  Level Estimated
Sun 02:17:32 AM 32.6715 127.2196 73° East  Level Estimated
Sun 02:18:32 AM 32.7049 127.3508 73° East  Level Estimated
Sun 02:19:32 AM 32.7383 127.4820 73° East  Level Estimated
Sun 02:20:32 AM 32.7715 127.6134 73° East  Level Estimated
Sun 02:21:32 AM 32.8046 127.7449 73° East  Level Estimated
Sun 02:22:32 AM 32.8372 127.8752 73° East  Level Estimated
Sun 02:23:32 AM 32.8697 128.0056 74° East  Level Estimated
Sun 02:24:32 AM 32.9020 128.1361 74° East  Level Estimated
Sun 02:25:32 AM 32.9342 128.2667 74° East  Level Estimated
Sun 02:26:32 AM 32.9663 128.3974 74° East  Level Estimated
Sun 02:27:32 AM 32.9983 128.5282 74° East  Level Estimated
Sun 02:28:32 AM 33.0301 128.6590 74° East  Level Estimated
Sun 02:29:32 AM 33.0617 128.7900 74° East  Level Estimated
Sun 02:30:32 AM 33.0933 128.9211 74° East  Level Estimated
Sun 02:31:32 AM 33.1247 129.0522 74° East  Level Estimated
Sun 02:32:32 AM 33.1559 129.1835 74° East  Level Estimated
Sun 02:33:32 AM 33.1870 129.3148 74° East  Level Estimated
Sun 02:34:32 AM 33.2180 129.4462 74° East  Level Estimated
Sun 02:35:32 AM 33.2489 129.5778 74° East  Level Estimated
Sun 02:36:32 AM 33.2790 129.7069 74° East  Level Estimated
Sun 02:37:32 AM 33.3090 129.8361 75° East  Level Estimated
Sun 02:38:32 AM 33.3388 129.9654 75° East  Level Estimated
Sun 02:39:32 AM 33.3685 130.0948 75° East  Level Estimated
Sun 02:40:32 AM 33.3981 130.2242 75° East  Level Estimated
Sun 02:41:32 AM 33.4276 130.3538 75° East  Level Estimated
Sun 02:42:32 AM 33.4566 130.4822 75° East  Level Estimated
Sun 02:43:32 AM 33.4855 130.6107 75° East  Level Estimated
Sun 02:44:32 AM 33.5143 130.7393 75° East  Level Estimated
Sun 02:45:32 AM 33.5429 130.8680 75° East  Level Estimated
Sun 02:46:32 AM 33.5714 130.9968 75° East  Level Estimated
Sun 02:47:32 AM 33.5998 131.1256 75° East  Level Estimated
Sun 02:48:32 AM 33.6281 131.2545 75° East  Level Estimated
Sun 02:49:32 AM 33.6562 131.3836 75° East  Level Estimated
Sun 02:50:32 AM 33.6841 131.5127 75° East  Level Estimated
Sun 02:51:32 AM 33.7120 131.6418 76° East  Level Estimated
Sun 02:52:32 AM 33.7397 131.7711 76° East  Level Estimated
Sun 02:53:32 AM 33.7673 131.9005 76° East  Level Estimated
Sun 02:54:32 AM 33.7947 132.0299 76° East  Level Estimated
Sun 02:55:32 AM 33.8220 132.1594 76° East  Level Estimated
Sun 02:56:32 AM 33.8486 132.2866 76° East  Level Estimated
Sun 02:57:32 AM 33.8752 132.4139 76° East  Level Estimated
Sun 02:58:32 AM 33.9016 132.5412 76° East  Level Estimated
Sun 02:59:32 AM 33.9278 132.6687 76° East  Level Estimated
Sun 03:00:32 AM 33.9540 132.7962 76° East  Level Estimated
Sun 03:01:32 AM 33.9800 132.9238 76° East  Level Estimated
Sun 03:02:32 AM 34.0059 133.0515 76° East  Level Estimated
Sun 03:03:32 AM 34.0316 133.1792 76° East  Level Estimated
Sun 03:04:32 AM 34.0572 133.3070 76° East  Level Estimated
Sun 03:05:32 AM 34.0827 133.4349 77° East  Level Estimated
Sun 03:06:32 AM 34.1080 133.5629 77° East  Level Estimated
Sun 03:07:32 AM 34.1333 133.6910 77° East  Level Estimated
Sun 03:08:32 AM 34.1583 133.8191 77° East  Level Estimated
Sun 03:09:32 AM 34.1833 133.9473 77° East  Level Estimated
Sun 03:10:32 AM 34.2081 134.0756 77° East  Level Estimated
Sun 03:11:32 AM 34.2328 134.2039 77° East  Level Estimated
Sun 03:12:32 AM 34.2573 134.3324 77° East  Level Estimated
Sun 03:13:32 AM 34.2829 134.4671 77° East  Level Estimated
Sun 03:14:32 AM 34.3083 134.6019 77° East  Level Estimated
Sun 03:15:32 AM 34.3336 134.7368 77° East  Level Estimated
Sun 03:16:32 AM 34.3588 134.8718 77° East  Level Estimated
Sun 03:17:32 AM 34.3829 135.0019 77° East  Level Estimated
Sun 03:18:32 AM 34.4068 135.1320 77° East  Level Estimated
Sun 03:19:32 AM 34.4306 135.2621 258° West  Level Estimated
Sun 03:20:32 AM 34.4068 135.1320 77° East  Level Estimated
Sun 03:21:32 AM 34.4306 135.2621 258° West  Level Estimated
Sun 03:22:32 AM 34.4068 135.1320 77° East  Level Estimated
Sun 03:23:32 AM 34.4306 135.2621 258° West  Level Estimated
Sun 03:24:32 AM 34.4068 135.1320 77° East  Level Estimated
Sun 03:25:32 AM 34.4306 135.2621 258° West  Level Estimated
Sun 03:26:32 AM 34.4068 135.1320 77° East  Level Estimated
Sun 03:27:32 AM 34.4308 135.2634 258° West  Level Estimated
Sun 03:28:32 AM 34.4068 135.1320 77° East  Level Estimated
Sun 03:29:32 AM 34.4308 135.2634 258° West  Level Estimated
Sun 03:30:32 AM 34.4068 135.1320 77° East  Level Estimated
Sun 03:31:32 AM 34.4308 135.2634 258° West  Level Estimated
Sun 03:32:32 AM 34.4068 135.1320 258° West  Level Estimated

Login

Don't have an account? Register now (free) for customized features, flight alerts, and more!